createdAt,value
2022-10-28T00:01:35.442Z,7.27
2022-10-28T00:04:05.854Z,7.13
2022-10-28T00:06:36.388Z,7.37
2022-10-28T00:09:09.687Z,6.63
2022-10-28T00:11:40.904Z,7.17
2022-10-28T00:14:10.868Z,7.43
2022-10-28T00:16:39.702Z,6.80
2022-10-28T00:19:11.218Z,7.50
2022-10-28T00:21:42.381Z,7.70
2022-10-28T00:24:14.254Z,7.23
2022-10-28T00:26:44.367Z,7.17
2022-10-28T00:29:15.106Z,7.13
2022-10-28T00:31:44.651Z,7.03
2022-10-28T00:34:15.820Z,7.23
2022-10-28T00:36:46.600Z,7.53
2022-10-28T00:39:19.315Z,7.37
2022-10-28T00:41:49.898Z,7.33
2022-10-28T00:44:44.290Z,7.40
2022-10-28T00:47:18.911Z,7.17
2022-10-28T00:49:51.956Z,7.77
2022-10-28T00:52:25.221Z,7.17
2022-10-28T00:54:56.127Z,7.57
2022-10-28T00:57:29.533Z,7.70
2022-10-28T01:00:00.218Z,8.17
2022-10-28T01:02:29.587Z,8.43
2022-10-28T01:04:59.781Z,8.03
2022-10-28T01:07:28.811Z,8.13
2022-10-28T01:09:59.109Z,8.10
2022-10-28T01:12:36.594Z,8.20
2022-10-28T01:15:17.114Z,8.90
2022-10-28T01:17:55.583Z,7.57
2022-10-28T01:21:12.349Z,8.50
2022-10-28T01:23:56.039Z,7.93
2022-10-28T01:26:39.367Z,8.17
2022-10-28T01:29:46.998Z,8.53
2022-10-28T01:32:23.960Z,8.30
2022-10-28T01:35:03.891Z,8.00
2022-10-28T01:37:37.119Z,7.90
2022-10-28T01:40:10.014Z,7.97
2022-10-28T01:42:45.127Z,7.90
2022-10-28T01:45:20.352Z,7.87
2022-10-28T01:47:56.490Z,8.07
2022-10-28T01:50:30.562Z,7.87
2022-10-28T01:53:04.040Z,7.83
2022-10-28T01:55:38.011Z,8.10
2022-10-28T01:58:09.423Z,8.20
2022-10-28T02:00:39.715Z,7.90
2022-10-28T02:03:10.847Z,8.30
2022-10-28T02:05:43.134Z,8.00
2022-10-28T02:08:35.941Z,7.90
2022-10-28T02:11:27.371Z,8.20
2022-10-28T02:14:06.710Z,7.43
2022-10-28T02:16:44.982Z,7.80
2022-10-28T02:19:22.164Z,7.73
2022-10-28T02:22:01.451Z,8.37
2022-10-28T02:24:40.076Z,7.80
2022-10-28T02:27:16.955Z,7.67
2022-10-28T02:29:50.054Z,8.00
2022-10-28T02:32:22.777Z,7.73
2022-10-28T02:34:56.281Z,7.40
2022-10-28T02:37:32.995Z,7.53
2022-10-28T02:40:06.719Z,7.97
2022-10-28T02:42:41.139Z,8.00
2022-10-28T02:45:13.923Z,8.57
2022-10-28T02:47:48.262Z,8.50
2022-10-28T02:50:21.735Z,7.20
2022-10-28T02:52:54.501Z,7.57
2022-10-28T02:55:27.056Z,8.17
2022-10-28T02:57:58.081Z,7.53
2022-10-28T03:00:27.618Z,7.70
2022-10-28T03:02:56.640Z,8.13
2022-10-28T03:05:27.115Z,7.53
2022-10-28T03:07:56.348Z,8.40
2022-10-28T03:10:25.383Z,7.93
2022-10-28T03:12:54.620Z,8.20
2022-10-28T03:15:23.525Z,7.93
2022-10-28T03:17:52.647Z,8.50
2022-10-28T03:20:22.191Z,8.43
2022-10-28T03:22:53.119Z,7.53
2022-10-28T03:25:22.327Z,8.83
2022-10-28T03:27:51.423Z,7.60
2022-10-28T03:30:20.636Z,8.17
2022-10-28T03:32:49.476Z,8.00
2022-10-28T03:35:18.302Z,8.63
2022-10-28T03:37:47.477Z,8.90
2022-10-28T03:40:17.882Z,8.63
2022-10-28T03:42:46.954Z,8.37
2022-10-28T03:45:16.145Z,9.60
2022-10-28T03:47:45.105Z,8.83
2022-10-28T03:50:14.103Z,9.23
2022-10-28T03:52:44.481Z,9.10
2022-10-28T03:55:13.366Z,9.40
2022-10-28T03:57:43.990Z,9.77
2022-10-28T04:00:14.031Z,9.97
2022-10-28T04:02:42.943Z,9.50
2022-10-28T04:05:12.260Z,9.03
2022-10-28T04:07:41.256Z,9.63
2022-10-28T04:10:10.936Z,10.17
2022-10-28T04:12:40.931Z,10.43
2022-10-28T04:15:11.918Z,10.37
2022-10-28T04:17:40.892Z,10.30
2022-10-28T04:20:10.867Z,9.40
2022-10-28T04:22:40.067Z,9.43
2022-10-28T04:25:09.384Z,10.50
2022-10-28T04:27:38.590Z,9.90
2022-10-28T04:30:08.924Z,10.57
2022-10-28T04:32:39.220Z,9.73
2022-10-28T04:35:09.008Z,9.97
2022-10-28T04:37:38.835Z,10.20
2022-10-28T04:40:09.462Z,10.23
2022-10-28T04:42:39.331Z,10.50
2022-10-28T04:45:10.143Z,10.57
2022-10-28T04:47:40.453Z,10.77
2022-10-28T04:50:10.065Z,10.70
2022-10-28T04:52:40.048Z,11.40
2022-10-28T04:55:09.836Z,11.23
2022-10-28T04:57:39.268Z,11.63
2022-10-28T05:00:09.392Z,11.50
2022-10-28T05:02:45.968Z,12.27
2022-10-28T05:05:18.322Z,12.10
2022-10-28T05:07:47.923Z,12.77
2022-10-28T05:10:18.212Z,12.00
2022-10-28T05:12:48.007Z,12.53
2022-10-28T05:15:17.623Z,12.10
2022-10-28T05:17:48.547Z,12.93
2022-10-28T05:20:19.411Z,11.40
2022-10-28T05:22:52.693Z,12.70
2022-10-28T05:25:22.804Z,12.70
2022-10-28T05:27:51.897Z,12.27
2022-10-28T05:30:21.479Z,12.53
2022-10-28T05:32:54.531Z,12.23
2022-10-28T05:35:24.444Z,12.90
2022-10-28T05:37:53.354Z,12.37
2022-10-28T05:40:22.811Z,12.27
2022-10-28T05:42:52.559Z,12.40
2022-10-28T05:45:23.428Z,13.37
2022-10-28T05:47:54.202Z,12.43
2022-10-28T05:50:24.138Z,12.73
2022-10-28T05:52:54.974Z,12.80
2022-10-28T05:55:28.165Z,12.73
2022-10-28T05:57:57.889Z,12.47
2022-10-28T06:00:28.790Z,12.17
2022-10-28T06:03:06.798Z,12.40
2022-10-28T06:05:36.186Z,12.97
2022-10-28T06:08:06.351Z,13.13
2022-10-28T06:10:35.498Z,13.27
2022-10-28T06:13:02.862Z,12.63
2022-10-28T06:15:33.304Z,12.87
2022-10-28T06:18:04.329Z,13.17
2022-10-28T06:20:33.600Z,13.30
2022-10-28T06:23:02.756Z,13.27
2022-10-28T06:25:32.411Z,13.83
2022-10-28T06:28:03.893Z,13.70
2022-10-28T06:30:34.018Z,12.43
2022-10-28T06:33:04.252Z,13.17
2022-10-28T06:35:33.219Z,13.00
2022-10-28T06:38:05.934Z,13.23
2022-10-28T06:40:38.274Z,12.87
2022-10-28T06:43:10.960Z,12.60
2022-10-28T06:45:40.875Z,12.00
2022-10-28T06:48:12.554Z,12.33
2022-10-28T06:50:42.351Z,12.60
2022-10-28T06:53:11.059Z,13.63
2022-10-28T06:55:40.012Z,13.33
2022-10-28T06:58:08.741Z,12.47
2022-10-28T07:00:37.488Z,13.10
2022-10-28T07:03:06.578Z,11.53
2022-10-28T07:05:36.736Z,13.50
2022-10-28T07:08:06.396Z,12.80
2022-10-28T07:10:35.398Z,13.17
2022-10-28T07:13:05.264Z,13.23
2022-10-28T07:15:34.535Z,12.53
2022-10-28T07:18:03.870Z,12.67
2022-10-28T07:20:33.055Z,12.33
2022-10-28T07:23:03.625Z,12.47
2022-10-28T07:25:32.762Z,12.17
2022-10-28T07:28:01.698Z,13.17
2022-10-28T07:30:32.262Z,11.83
2022-10-28T07:33:01.492Z,12.33
2022-10-28T07:35:32.485Z,12.30
2022-10-28T07:38:01.234Z,11.37
2022-10-28T07:40:35.609Z,11.80
2022-10-28T07:43:04.498Z,11.80
2022-10-28T07:45:35.405Z,11.17
2022-10-28T07:48:05.121Z,11.50
2022-10-28T07:50:34.224Z,11.53
2022-10-28T07:53:03.580Z,10.73
2022-10-28T07:55:32.711Z,10.73
2022-10-28T07:58:03.230Z,9.83
2022-10-28T08:00:33.414Z,10.90
2022-10-28T08:03:04.072Z,10.17
2022-10-28T08:05:33.093Z,10.30
2022-10-28T08:08:02.344Z,9.20
2022-10-28T08:10:32.450Z,10.17
2022-10-28T08:13:03.452Z,10.17
2022-10-28T08:15:32.644Z,9.40
2022-10-28T08:18:01.856Z,10.00
2022-10-28T08:20:31.010Z,10.60
2022-10-28T08:23:02.894Z,10.40
2022-10-28T08:25:34.583Z,9.27
2022-10-28T08:28:05.171Z,8.53
2022-10-28T08:30:50.224Z,9.20
2022-10-28T08:33:23.518Z,8.97
2022-10-28T08:35:52.618Z,8.93
2022-10-28T08:38:21.589Z,8.30
2022-10-28T08:40:58.898Z,8.30
2022-10-28T08:43:56.766Z,8.57
2022-10-28T08:46:39.317Z,8.60
2022-10-28T08:49:13.632Z,8.53
2022-10-28T08:51:47.237Z,8.23
2022-10-28T08:54:21.613Z,8.73
2022-10-28T08:56:54.888Z,8.63
2022-10-28T08:59:32.167Z,8.13
2022-10-28T09:02:04.431Z,8.90
2022-10-28T09:04:39.724Z,9.30
2022-10-28T09:07:14.860Z,8.30
2022-10-28T09:09:43.753Z,8.30
2022-10-28T09:12:23.597Z,8.50
2022-10-28T09:15:06.599Z,8.23
2022-10-28T09:17:46.361Z,8.03
2022-10-28T09:20:20.083Z,8.47
2022-10-28T09:22:57.632Z,8.50
2022-10-28T09:25:35.576Z,8.83
2022-10-28T09:28:20.097Z,9.00
2022-10-28T09:31:00.397Z,9.23
2022-10-28T09:33:50.800Z,8.90
2022-10-28T09:36:25.629Z,8.27
2022-10-28T09:38:58.167Z,8.87
2022-10-28T09:41:32.186Z,8.57
2022-10-28T09:44:09.556Z,8.17
2022-10-28T09:46:41.205Z,8.07
2022-10-28T09:49:17.680Z,8.50
2022-10-28T09:51:51.444Z,7.80
2022-10-28T09:54:29.413Z,8.00
2022-10-28T09:56:58.581Z,7.43
2022-10-28T09:59:28.094Z,6.90
2022-10-28T10:01:59.137Z,7.27
2022-10-28T10:04:31.140Z,6.83
2022-10-28T10:07:06.856Z,6.43
2022-10-28T10:09:38.202Z,6.57
2022-10-28T10:12:10.607Z,6.10
2022-10-28T10:14:43.426Z,6.33
2022-10-28T10:17:17.863Z,6.17
2022-10-28T10:20:02.900Z,6.53
2022-10-28T10:22:34.311Z,6.07
2022-10-28T10:25:04.079Z,5.53
2022-10-28T10:27:33.344Z,5.50
2022-10-28T10:30:02.838Z,5.63
2022-10-28T10:32:33.992Z,4.93
2022-10-28T10:35:07.098Z,5.40
2022-10-28T10:37:37.506Z,5.60
2022-10-28T10:40:17.608Z,5.40
2022-10-28T10:42:57.555Z,4.40
2022-10-28T10:45:35.744Z,4.87
2022-10-28T10:48:14.205Z,4.73
2022-10-28T10:50:44.819Z,4.47
2022-10-28T10:53:23.386Z,4.10
2022-10-28T10:55:56.207Z,3.67
2022-10-28T10:58:27.912Z,3.73
2022-10-28T11:01:00.659Z,3.57
2022-10-28T11:03:34.925Z,3.53
2022-10-28T11:06:23.953Z,3.50
2022-10-28T11:08:58.629Z,3.47
2022-10-28T11:11:35.202Z,3.63
2022-10-28T11:14:08.839Z,3.33
2022-10-28T11:16:51.809Z,3.07
2022-10-28T11:19:25.424Z,3.50
2022-10-28T11:22:17.655Z,3.50
2022-10-28T11:25:27.410Z,3.13
2022-10-28T11:28:16.771Z,3.60
2022-10-28T11:30:54.717Z,3.17
2022-10-28T11:33:30.799Z,3.97
2022-10-28T11:36:11.911Z,3.93
2022-10-28T11:39:19.942Z,3.73
2022-10-28T11:42:01.026Z,4.00
2022-10-28T11:44:41.330Z,4.10
2022-10-28T11:47:27.012Z,3.90
2022-10-28T11:50:12.714Z,4.00
2022-10-28T11:52:59.305Z,4.20
2022-10-28T11:55:36.318Z,4.10
2022-10-28T11:58:17.040Z,4.20
2022-10-28T12:00:58.764Z,3.73
2022-10-28T12:03:52.362Z,4.20
2022-10-28T12:06:30.145Z,4.10
2022-10-28T12:09:12.272Z,4.00
2022-10-28T12:11:58.376Z,4.20
2022-10-28T12:14:33.685Z,4.30
2022-10-28T12:17:12.841Z,3.93
2022-10-28T12:19:47.195Z,4.20
2022-10-28T12:22:23.806Z,3.70
2022-10-28T12:24:55.340Z,4.30
2022-10-28T12:27:29.395Z,3.77
2022-10-28T12:30:02.313Z,4.10
2022-10-28T12:32:35.356Z,4.03
2022-10-28T12:35:07.636Z,3.90
2022-10-28T12:37:44.804Z,3.77
2022-10-28T12:40:21.789Z,4.57
2022-10-28T12:42:57.090Z,3.67
2022-10-28T12:45:26.986Z,3.87
2022-10-28T12:48:00.981Z,3.77
2022-10-28T12:50:35.451Z,3.63
2022-10-28T12:53:24.727Z,3.73
2022-10-28T12:55:59.797Z,3.73
2022-10-28T12:58:34.420Z,3.43
2022-10-28T13:01:10.012Z,3.63
2022-10-28T13:03:40.087Z,3.60
2022-10-28T13:06:30.195Z,4.00
2022-10-28T13:09:26.258Z,3.80
2022-10-28T13:12:28.485Z,3.20
2022-10-28T13:15:22.884Z,3.30
2022-10-28T13:18:04.343Z,3.77
2022-10-28T13:20:47.207Z,3.40
2022-10-28T13:23:26.681Z,3.80
2022-10-28T13:26:06.389Z,4.00
2022-10-28T13:28:43.010Z,3.70
2022-10-28T13:31:12.391Z,4.10
2022-10-28T13:33:49.459Z,3.60
2022-10-28T13:36:21.109Z,3.57
2022-10-28T13:38:52.888Z,3.80
2022-10-28T13:41:34.348Z,3.50
2022-10-28T13:44:29.422Z,3.57
2022-10-28T13:47:21.358Z,3.57
2022-10-28T13:50:16.303Z,3.67
2022-10-28T13:52:46.531Z,3.60
2022-10-28T13:55:25.106Z,3.30
2022-10-28T13:58:01.457Z,3.10
2022-10-28T14:00:39.232Z,3.37
2022-10-28T14:03:19.628Z,3.90
2022-10-28T14:05:55.417Z,3.60
2022-10-28T14:08:31.040Z,3.70
2022-10-28T14:11:05.015Z,3.27
2022-10-28T14:13:38.318Z,3.40
2022-10-28T14:16:24.953Z,3.70
2022-10-28T14:18:58.029Z,3.73
2022-10-28T14:21:41.149Z,3.77
2022-10-28T14:24:15.710Z,3.80
2022-10-28T14:27:30.972Z,3.90
2022-10-28T14:30:19.074Z,3.40
2022-10-28T14:33:27.001Z,3.70
2022-10-28T14:36:26.092Z,3.80
2022-10-28T14:39:24.434Z,3.50
2022-10-28T14:42:16.007Z,4.10
2022-10-28T14:45:01.113Z,3.77
2022-10-28T14:47:58.396Z,3.83
2022-10-28T14:50:38.197Z,4.53
2022-10-28T14:53:12.161Z,3.67
2022-10-28T14:55:45.899Z,3.53
2022-10-28T14:58:22.738Z,4.13
2022-10-28T15:01:10.667Z,3.80
2022-10-28T15:03:40.146Z,3.57
2022-10-28T15:06:29.714Z,3.73
2022-10-28T15:09:04.249Z,3.80
2022-10-28T15:11:34.417Z,4.00
2022-10-28T15:14:25.408Z,3.80
2022-10-28T15:16:55.340Z,3.70
2022-10-28T15:19:26.303Z,4.20
2022-10-28T15:22:06.801Z,3.77
2022-10-28T15:24:35.984Z,3.83
2022-10-28T15:27:05.424Z,4.03
2022-10-28T15:29:34.912Z,3.93
2022-10-28T15:32:13.485Z,4.30
2022-10-28T15:34:43.130Z,4.00
2022-10-28T15:37:18.801Z,4.13
2022-10-28T15:39:49.315Z,3.90
2022-10-28T15:42:32.324Z,4.37
2022-10-28T15:45:01.688Z,4.10
2022-10-28T15:47:33.364Z,4.13
2022-10-28T15:50:25.901Z,3.90
2022-10-28T15:53:33.390Z,4.10
2022-10-28T15:56:21.815Z,3.80
2022-10-28T15:59:04.247Z,3.90
2022-10-28T16:01:39.491Z,4.03
2022-10-28T16:04:45.212Z,3.93
2022-10-28T16:07:14.442Z,4.17
2022-10-28T16:09:46.973Z,4.30
2022-10-28T16:12:17.706Z,4.63
2022-10-28T16:14:50.692Z,4.20
2022-10-28T16:17:23.194Z,4.20
2022-10-28T16:19:56.224Z,4.20
2022-10-28T16:22:27.841Z,4.23
2022-10-28T16:24:57.412Z,4.10
2022-10-28T16:27:28.493Z,4.30
2022-10-28T16:29:57.914Z,4.00
2022-10-28T16:32:28.973Z,4.27
2022-10-28T16:34:59.788Z,4.57
2022-10-28T16:37:30.675Z,4.07
2022-10-28T16:39:59.967Z,4.43
2022-10-28T16:42:30.066Z,4.60
2022-10-28T16:44:59.289Z,4.80
2022-10-28T16:47:29.108Z,4.43
2022-10-28T16:49:59.502Z,4.67
2022-10-28T16:52:30.929Z,6.40
2022-10-28T16:55:00.253Z,9.57
2022-10-28T16:57:31.342Z,7.63
2022-10-28T17:00:00.110Z,7.00
2022-10-28T17:02:31.742Z,6.70
2022-10-28T17:05:04.912Z,6.00
2022-10-28T17:07:33.813Z,5.80
2022-10-28T17:10:03.753Z,5.30
2022-10-28T17:12:32.702Z,5.40
2022-10-28T17:15:01.881Z,5.90
2022-10-28T17:17:31.142Z,5.40
2022-10-28T17:20:01.584Z,4.83
2022-10-28T17:22:30.673Z,5.20
2022-10-28T17:25:00.005Z,5.20
2022-10-28T17:27:28.923Z,5.33
2022-10-28T17:29:57.617Z,5.43
2022-10-28T17:32:26.983Z,5.47
2022-10-28T17:34:55.717Z,5.10
2022-10-28T17:37:26.240Z,5.40
2022-10-28T17:42:25.062Z,5.30
2022-10-28T17:44:54.281Z,5.03
2022-10-28T17:47:23.220Z,5.30
2022-10-28T17:49:52.237Z,5.10
2022-10-28T17:52:21.757Z,5.20
2022-10-28T17:54:52.226Z,4.80
2022-10-28T17:57:21.195Z,5.10
2022-10-28T17:59:49.932Z,5.20
2022-10-28T18:02:18.916Z,5.13
2022-10-28T18:04:48.089Z,4.80
2022-10-28T18:07:17.098Z,4.97
2022-10-28T18:09:45.919Z,5.30
2022-10-28T18:12:16.222Z,5.10
2022-10-28T18:14:45.303Z,5.43
2022-10-28T18:17:16.894Z,5.20
2022-10-28T18:19:45.916Z,5.50
2022-10-28T18:22:14.912Z,5.70
2022-10-28T18:24:43.870Z,5.50
2022-10-28T18:27:12.843Z,4.93
2022-10-28T18:29:43.319Z,5.60
2022-10-28T18:32:12.765Z,5.73
2022-10-28T18:34:41.693Z,6.30
2022-10-28T18:37:12.387Z,5.53
2022-10-28T18:39:43.869Z,5.80
2022-10-28T18:42:13.098Z,5.80
2022-10-28T18:44:44.393Z,5.63
2022-10-28T18:47:13.425Z,5.93
2022-10-28T18:49:45.324Z,6.00
2022-10-28T18:52:14.412Z,6.27
2022-10-28T18:54:43.434Z,5.60
2022-10-28T18:57:12.460Z,5.40
2022-10-28T19:00:05.072Z,5.23
2022-10-28T19:02:32.060Z,5.83
2022-10-28T19:05:01.341Z,5.87
2022-10-28T19:07:32.680Z,5.87
2022-10-28T19:10:01.841Z,6.23
2022-10-28T19:12:30.702Z,6.43
2022-10-28T19:14:59.790Z,6.17
2022-10-28T19:17:28.759Z,6.10
2022-10-28T19:19:59.012Z,5.40
2022-10-28T19:22:28.642Z,6.20
2022-10-28T19:24:57.639Z,5.73
2022-10-28T19:27:26.849Z,5.50
2022-10-28T19:29:58.207Z,6.17
2022-10-28T19:32:27.527Z,6.23
2022-10-28T19:34:58.073Z,6.10
2022-10-28T19:37:27.178Z,6.33
2022-10-28T19:39:56.700Z,6.20
2022-10-28T19:42:25.961Z,6.17
2022-10-28T19:44:55.716Z,6.20
2022-10-28T19:47:24.609Z,5.80
2022-10-28T19:49:53.618Z,5.93
2022-10-28T19:52:24.176Z,6.03
2022-10-28T19:54:53.425Z,6.23
2022-10-28T19:57:22.270Z,6.37
2022-10-28T19:59:51.260Z,6.60
2022-10-28T20:02:20.470Z,5.63
2022-10-28T20:04:54.720Z,6.00
2022-10-28T20:07:24.939Z,5.87
2022-10-28T20:09:54.519Z,5.77
2022-10-28T20:12:23.603Z,5.77
2022-10-28T20:14:52.536Z,6.07
2022-10-28T20:17:21.283Z,5.30
2022-10-28T20:19:50.201Z,5.63
2022-10-28T20:22:19.080Z,5.43
2022-10-28T20:24:49.991Z,6.13
2022-10-28T20:27:18.760Z,5.70
2022-10-28T20:29:47.780Z,5.97
2022-10-28T20:32:17.098Z,5.73
2022-10-28T20:34:45.896Z,5.40
2022-10-28T20:37:15.085Z,5.93
2022-10-28T20:39:44.079Z,5.50
2022-10-28T20:42:14.167Z,5.63
2022-10-28T20:44:43.372Z,5.47
2022-10-28T20:47:12.175Z,5.87
2022-10-28T20:49:42.624Z,5.93
2022-10-28T20:52:16.319Z,5.60
2022-10-28T20:54:45.042Z,5.57
2022-10-28T20:57:15.258Z,5.80
2022-10-28T20:59:44.332Z,5.40
2022-10-28T21:02:13.417Z,5.40
2022-10-28T21:04:42.455Z,6.00
2022-10-28T21:07:11.285Z,5.97
2022-10-28T21:09:40.385Z,5.73
2022-10-28T21:12:09.436Z,5.93
2022-10-28T21:14:39.449Z,6.07
2022-10-28T21:17:08.173Z,6.03
2022-10-28T21:19:37.031Z,6.00
2022-10-28T21:22:05.767Z,6.20
2022-10-28T21:24:34.774Z,6.40
2022-10-28T21:27:03.772Z,5.90
2022-10-28T21:29:32.769Z,6.10
2022-10-28T21:32:02.879Z,6.13
2022-10-28T21:34:31.579Z,5.70
2022-10-28T21:37:00.458Z,6.20
2022-10-28T21:39:29.340Z,6.40
2022-10-28T21:41:58.316Z,6.13
2022-10-28T21:44:27.805Z,6.33
2022-10-28T21:46:56.706Z,6.27
2022-10-28T21:49:27.065Z,5.90
2022-10-28T21:51:56.201Z,6.63
2022-10-28T21:54:25.145Z,6.63
2022-10-28T21:56:54.035Z,5.73
2022-10-28T21:59:22.996Z,6.37
2022-10-28T22:01:52.060Z,6.20
2022-10-28T22:04:21.091Z,6.10
2022-10-28T22:06:51.421Z,6.10
2022-10-28T22:09:20.290Z,5.83
2022-10-28T22:11:49.273Z,5.53
2022-10-28T22:14:18.561Z,6.23
2022-10-28T22:16:47.411Z,6.17
2022-10-28T22:19:16.718Z,6.37
2022-10-28T22:21:45.517Z,6.53
2022-10-28T22:24:16.260Z,6.50
2022-10-28T22:26:45.026Z,6.43
2022-10-28T22:29:13.814Z,5.87
2022-10-28T22:31:43.068Z,5.97
2022-10-28T22:34:11.933Z,6.03
2022-10-28T22:36:43.122Z,6.23
2022-10-28T22:39:11.952Z,6.07
2022-10-28T22:41:42.105Z,5.60
2022-10-28T22:44:10.792Z,6.10
2022-10-28T22:46:40.717Z,6.13
2022-10-28T22:49:09.776Z,5.87
2022-10-28T22:51:38.884Z,6.43
2022-10-28T22:54:07.954Z,6.10
2022-10-28T22:56:36.718Z,6.43
2022-10-28T22:59:07.249Z,6.10
2022-10-28T23:01:36.139Z,6.23
2022-10-28T23:04:05.481Z,6.53
2022-10-28T23:06:34.211Z,6.07
2022-10-28T23:09:03.056Z,5.83
2022-10-28T23:11:32.078Z,6.27
2022-10-28T23:14:01.024Z,6.40
2022-10-28T23:16:31.104Z,6.27
2022-10-28T23:19:01.666Z,5.80
2022-10-28T23:21:30.501Z,5.97
2022-10-28T23:24:01.033Z,6.00
2022-10-28T23:26:30.600Z,6.30
2022-10-28T23:29:00.941Z,5.83
2022-10-28T23:31:31.261Z,6.23
2022-10-28T23:34:01.020Z,6.27
2022-10-28T23:36:30.009Z,6.80
2022-10-28T23:38:58.816Z,6.60
2022-10-28T23:41:27.592Z,6.47
2022-10-28T23:43:56.905Z,6.20
2022-10-28T23:46:25.705Z,6.10
2022-10-28T23:48:56.061Z,5.93
2022-10-28T23:51:24.845Z,6.03
2022-10-28T23:53:53.519Z,6.37
2022-10-28T23:56:22.488Z,6.00
2022-10-28T23:58:51.278Z,6.07
